Time;durP1;ratioP1;P1;durP2;ratioP2;P2;SDS_P1;SDS_P2;PMS_P1;PMS_P2;Temp;Humidity;BMP_temperature;BMP_pressure;BME280_temperature;BME280_humidity;BME280_pressure;Samples;Min_cycle;Max_cycle;Signal;HPM_P1;HPM_P2
2022/04/11 00:01:35;;;;;;;16.15;2.60;;;;;;;8.88;62.45;101382.50;4850194;28;121218;-82
2022/04/11 00:04:01;;;;;;;8.20;2.60;;;;;;;8.87;62.46;101376.25;4851281;28;120304;-83
2022/04/11 00:06:30;;;;;;;9.30;2.35;;;;;;;8.86;62.53;101384.88;4819855;28;120323;-83
2022/04/11 00:08:55;;;;;;;11.50;2.97;;;;;;;8.82;62.10;101381.44;4835899;28;121689;-83
2022/04/11 00:11:21;;;;;;;7.85;2.40;;;;;;;8.81;61.82;101388.13;4818910;28;120664;-81
2022/04/11 00:13:46;;;;;;;7.38;2.40;;;;;;;8.74;61.17;101390.97;4820458;28;119930;-85
2022/04/11 00:16:13;;;;;;;10.85;2.85;;;;;;;8.61;61.78;101380.66;4834041;28;122711;-83
2022/04/11 00:18:39;;;;;;;12.77;5.38;;;;;;;8.60;62.06;101390.06;4840070;28;121224;-83
2022/04/11 00:21:04;;;;;;;10.30;3.80;;;;;;;8.54;62.43;101396.44;4845918;28;119724;-85
2022/04/11 00:23:30;;;;;;;11.25;3.90;;;;;;;8.49;62.76;101392.19;4834779;28;122797;-84
2022/04/11 00:25:56;;;;;;;11.73;4.10;;;;;;;8.48;63.05;101390.66;4826543;28;119642;-85
2022/04/11 00:28:21;;;;;;;17.02;5.25;;;;;;;8.52;63.09;101390.63;4826697;28;121855;-83
2022/04/11 00:30:47;;;;;;;9.80;3.63;;;;;;;8.45;63.48;101383.28;4814245;28;122585;-82
2022/04/11 00:33:15;;;;;;;9.93;3.22;;;;;;;8.49;63.35;101385.97;4803133;28;119811;-84
2022/04/11 00:35:41;;;;;;;8.98;3.05;;;;;;;8.54;63.37;101397.22;4817330;28;122659;-84
2022/04/11 00:38:07;;;;;;;7.10;2.70;;;;;;;8.54;63.68;101396.44;4807193;28;120003;-84
2022/04/11 00:40:32;;;;;;;8.13;2.50;;;;;;;8.54;62.66;101399.16;4854294;28;119321;-84
2022/04/11 00:42:58;;;;;;;10.30;3.33;;;;;;;8.54;62.41;101408.16;4841840;28;119959;-84
2022/04/11 00:45:26;;;;;;;8.52;3.25;;;;;;;8.46;62.81;101395.78;4867466;28;119507;-83
2022/04/11 00:47:52;;;;;;;6.38;3.03;;;;;;;8.45;62.98;101393.47;4848826;28;119762;-83
2022/04/11 00:50:20;;;;;;;8.60;3.25;;;;;;;8.48;63.02;101407.06;4806269;28;121946;-84
2022/04/11 00:52:49;;;;;;;12.93;2.80;;;;;;;8.45;62.49;101401.66;4821180;28;119544;-84
2022/04/11 00:55:21;;;;;;;10.85;3.13;;;;;;;8.38;62.01;101393.59;4840023;28;122327;-83
2022/04/11 00:57:51;;;;;;;10.10;3.10;;;;;;;8.42;62.37;101406.00;4808952;28;123375;-83
2022/04/11 01:00:17;;;;;;;6.85;2.80;;;;;;;8.40;62.58;101413.09;4838864;28;119512;-85
2022/04/11 01:02:43;;;;;;;7.60;2.38;;;;;;;8.34;62.14;101412.78;4808037;28;122851;-84
2022/04/11 01:05:11;;;;;;;7.25;2.70;;;;;;;8.33;62.77;101408.50;4831279;28;119800;-84
2022/04/11 01:07:38;;;;;;;7.47;3.00;;;;;;;8.31;62.16;101410.88;4821222;28;121592;-84
2022/04/11 01:10:05;;;;;;;7.60;3.10;;;;;;;8.22;62.34;101414.13;4802614;29;123789;-84
2022/04/11 01:12:32;;;;;;;11.98;3.40;;;;;;;8.26;62.49;101414.06;4816291;28;120070;-83
2022/04/11 01:14:58;;;;;;;8.48;3.25;;;;;;;8.16;62.53;101409.56;4837826;28;119743;-84
2022/04/11 01:17:37;;;;;;;10.10;3.50;;;;;;;8.21;63.09;101422.72;4803673;28;122905;-82
2022/04/11 01:20:12;;;;;;;8.40;3.00;;;;;;;8.20;62.98;101424.69;4840125;28;119843;-83
2022/04/11 01:22:40;;;;;;;12.13;3.55;;;;;;;8.15;62.97;101413.47;4830711;28;122944;-83
2022/04/11 01:25:07;;;;;;;11.70;3.30;;;;;;;8.12;63.26;101409.63;4821544;28;119689;-84
2022/04/11 01:27:33;;;;;;;10.63;3.50;;;;;;;8.12;63.02;101414.31;4834056;28;121475;-84
2022/04/11 01:29:59;;;;;;;10.25;4.10;;;;;;;8.12;63.70;101419.78;4824531;28;120558;-84
2022/04/11 01:32:25;;;;;;;10.13;3.70;;;;;;;8.16;63.77;101415.78;4821345;28;119449;-83
2022/04/11 01:34:52;;;;;;;9.77;3.83;;;;;;;8.23;63.88;101420.34;4836670;28;119311;-84
2022/04/11 01:37:18;;;;;;;11.13;4.15;;;;;;;8.15;64.22;101408.78;4815234;28;122663;-83
2022/04/11 01:39:43;;;;;;;11.07;3.65;;;;;;;8.30;64.35;101423.00;4814453;29;120113;-83
2022/04/11 01:42:09;;;;;;;10.27;3.58;;;;;;;8.35;64.53;101422.53;4819871;28;120474;-84
2022/04/11 01:44:34;;;;;;;10.00;3.65;;;;;;;8.38;64.11;101424.44;4821044;28;120636;-82
2022/04/11 01:47:00;;;;;;;8.02;3.63;;;;;;;8.39;63.69;101422.47;4832786;28;121639;-82
2022/04/11 01:49:28;;;;;;;10.55;3.53;;;;;;;8.44;63.51;101427.47;4821004;28;119817;-83
2022/04/11 01:51:54;;;;;;;6.25;3.38;;;;;;;8.35;63.19;101414.34;4836818;28;120049;-83
2022/04/11 01:54:20;;;;;;;9.20;3.47;;;;;;;8.23;62.88;101396.53;4802703;29;121516;-84
2022/04/11 01:56:46;;;;;;;7.05;3.00;;;;;;;8.30;62.26;101420.25;4832827;28;122252;-84
2022/04/11 01:59:13;;;;;;;8.18;3.08;;;;;;;8.31;62.20;101432.75;4821643;28;120144;-83
2022/04/11 02:01:39;;;;;;;7.68;3.67;;;;;;;8.18;62.33;101404.44;4839390;28;120218;-84
2022/04/11 02:04:05;;;;;;;7.00;3.80;;;;;;;8.14;62.89;101409.19;4805283;28;119603;-84
2022/04/11 02:06:30;;;;;;;6.55;3.55;;;;;;;8.15;62.66;101418.94;4804255;28;121894;-84
2022/04/11 02:08:57;;;;;;;10.15;3.50;;;;;;;8.16;62.06;101421.25;4820473;28;120008;-84
2022/04/11 02:11:28;;;;;;;8.27;3.55;;;;;;;8.10;62.14;101417.47;4821528;28;119354;-84
2022/04/11 02:13:54;;;;;;;7.13;4.13;;;;;;;7.99;62.44;101405.91;4835725;28;119563;-84
2022/04/11 02:16:23;;;;;;;9.85;3.60;;;;;;;7.95;62.27;101408.69;4820386;28;119707;-84
2022/04/11 02:18:49;;;;;;;7.43;3.45;;;;;;;7.95;62.26;101416.91;4819332;28;119755;-83
2022/04/11 02:21:15;;;;;;;10.43;3.58;;;;;;;7.96;61.96;101423.91;4805010;28;121816;-84
2022/04/11 02:23:41;;;;;;;10.85;3.65;;;;;;;7.90;62.72;101413.88;4842505;28;120265;-82
2022/04/11 02:26:07;;;;;;;11.52;3.55;;;;;;;7.74;62.79;101400.81;4812526;28;121653;-83
2022/04/11 02:28:35;;;;;;;9.93;3.58;;;;;;;7.86;62.97;101424.09;4821587;28;122862;-84
2022/04/11 02:31:01;;;;;;;11.15;3.70;;;;;;;7.83;62.60;101420.22;4797568;28;119703;-83
2022/04/11 02:33:27;;;;;;;9.45;3.83;;;;;;;7.85;62.63;101425.28;4805753;28;120364;-84
2022/04/11 02:35:53;;;;;;;7.95;3.60;;;;;;;7.83;63.40;101424.91;4816827;28;122641;-85
2022/04/11 02:38:19;;;;;;;10.02;4.00;;;;;;;7.86;63.22;101430.31;4832907;28;119760;-84
2022/04/11 02:40:46;;;;;;;12.63;3.75;;;;;;;7.81;63.04;101410.91;4802795;28;120320;-84
2022/04/11 02:43:17;;;;;;;10.93;3.25;;;;;;;7.83;63.06;101428.41;4802749;28;123201;-85
2022/04/11 02:45:48;;;;;;;9.47;3.97;;;;;;;7.85;62.70;101428.00;4827561;28;119753;-84
2022/04/11 02:48:21;;;;;;;8.55;3.40;;;;;;;7.78;63.25;101426.13;4822461;28;120477;-84
2022/04/11 02:50:53;;;;;;;8.77;3.67;;;;;;;7.80;62.69;101423.75;4808080;28;119469;-84
2022/04/11 02:53:23;;;;;;;11.75;3.92;;;;;;;7.81;62.91;101430.78;4819658;28;122018;-83
2022/04/11 02:55:49;;;;;;;10.52;3.85;;;;;;;7.79;63.21;101433.13;4804399;28;123592;-84
2022/04/11 02:58:17;;;;;;;5.78;3.33;;;;;;;7.79;62.88;101435.09;4807352;28;120013;-85
2022/04/11 03:00:46;;;;;;;8.02;3.88;;;;;;;7.70;62.92;101413.78;4822946;28;119846;-83
2022/04/11 03:03:12;;;;;;;6.32;3.30;;;;;;;7.82;62.52;101435.06;4836185;28;120793;-84
2022/04/11 03:05:40;;;;;;;10.95;3.88;;;;;;;7.80;62.56;101437.41;4826192;28;119859;-83
2022/04/11 03:08:08;;;;;;;7.40;3.85;;;;;;;7.73;62.27;101421.13;4812574;28;120447;-84
2022/04/11 03:10:34;;;;;;;8.55;3.85;;;;;;;7.74;62.48;101424.63;4822606;28;119865;-84
2022/04/11 03:13:03;;;;;;;10.93;3.75;;;;;;;7.68;61.93;101424.34;4839864;28;119457;-84
2022/04/11 03:15:31;;;;;;;10.00;3.97;;;;;;;7.67;62.20;101429.03;4822276;28;123549;-84
2022/04/11 03:17:59;;;;;;;7.90;3.63;;;;;;;7.66;61.84;101432.16;4826302;28;119629;-83
2022/04/11 03:20:25;;;;;;;6.88;3.38;;;;;;;7.60;61.90;101429.13;4826732;28;122175;-84
2022/04/11 03:22:52;;;;;;;7.03;3.47;;;;;;;7.57;62.03;101429.16;4818604;28;122709;-84
2022/04/11 03:25:18;;;;;;;6.55;3.72;;;;;;;7.50;61.79;101421.84;4823086;28;119649;-84
2022/04/11 03:27:45;;;;;;;7.63;4.03;;;;;;;7.53;61.98;101431.94;4824344;28;119830;-84
2022/04/11 03:30:11;;;;;;;12.25;4.65;;;;;;;7.49;62.16;101433.94;4812057;28;122627;-84
2022/04/11 03:32:38;;;;;;;11.13;5.05;;;;;;;7.44;62.02;101433.63;4839250;28;119710;-83
2022/04/11 03:35:10;;;;;;;8.95;4.43;;;;;;;7.37;62.11;101418.91;4805238;28;123198;-83
2022/04/11 03:37:38;;;;;;;10.02;4.65;;;;;;;7.30;62.09;101413.53;4839556;28;119770;-84
2022/04/11 03:40:23;;;;;;;9.73;4.20;;;;;;;7.33;61.64;101429.09;4847699;28;120839;-83
2022/04/11 03:42:50;;;;;;;7.90;4.20;;;;;;;7.32;61.46;101419.34;4802620;29;122492;-84
2022/04/11 03:45:16;;;;;;;8.77;4.60;;;;;;;7.25;61.51;101424.91;4822463;28;119520;-84
2022/04/11 03:47:45;;;;;;;8.15;4.22;;;;;;;7.21;61.07;101426.91;4823150;28;120042;-85
2022/04/11 03:50:13;;;;;;;7.82;4.82;;;;;;;7.12;61.37;101426.63;4811577;28;123247;-83
2022/04/11 03:52:41;;;;;;;5.50;4.10;;;;;;;7.17;61.89;101439.81;4821809;28;122073;-85
2022/04/11 03:55:09;;;;;;;9.38;4.82;;;;;;;7.13;61.48;101439.09;4821746;28;121138;-82
2022/04/11 03:57:37;;;;;;;11.75;5.35;;;;;;;7.04;61.60;101430.59;4805048;29;120192;-84
2022/04/11 04:00:04;;;;;;;8.45;4.97;;;;;;;6.99;61.94;101428.34;4820584;28;122210;-85
2022/04/11 04:02:43;;;;;;;10.63;4.95;;;;;;;7.05;62.12;101449.28;4838732;28;123040;-84
2022/04/11 04:05:15;;;;;;;9.93;5.28;;;;;;;7.00;61.96;101441.56;4823100;28;120231;-83
2022/04/11 04:07:41;;;;;;;9.18;4.80;;;;;;;6.94;62.31;101434.25;4835397;29;122076;-84
2022/04/11 04:10:07;;;;;;;9.00;4.80;;;;;;;7.01;62.30;101445.84;4802667;29;123304;-84
2022/04/11 04:12:35;;;;;;;10.95;4.82;;;;;;;7.03;62.27;101448.16;4825979;28;119529;-83
2022/04/11 04:15:15;;;;;;;13.02;5.15;;;;;;;7.06;62.17;101444.59;4819570;28;122884;-84
2022/04/11 04:17:47;;;;;;;7.35;4.05;;;;;;;7.02;61.61;101444.66;4820340;28;121864;-83
2022/04/11 04:20:13;;;;;;;11.93;4.43;;;;;;;6.96;61.54;101446.28;4814230;28;121978;-83
2022/04/11 04:22:39;;;;;;;7.70;4.00;;;;;;;6.99;61.52;101452.88;4834149;28;119971;-84
2022/04/11 04:25:07;;;;;;;8.63;4.40;;;;;;;6.93;61.23;101451.78;4819699;29;120220;-84
2022/04/11 04:27:32;;;;;;;7.63;4.90;;;;;;;6.89;61.37;101462.75;4851344;28;119694;-83
2022/04/11 04:30:00;;;;;;;14.45;5.82;;;;;;;6.78;61.52;101443.75;4834012;28;122748;-84
2022/04/11 04:32:27;;;;;;;13.20;5.85;;;;;;;6.82;62.20;101456.56;4806820;28;119680;-83
2022/04/11 04:34:56;;;;;;;12.38;5.93;;;;;;;6.89;62.46;101462.75;4823057;29;121534;-83
2022/04/11 04:37:22;;;;;;;13.65;6.30;;;;;;;6.86;62.72;101451.84;4819069;28;119668;-84
2022/04/11 04:39:51;;;;;;;11.73;5.72;;;;;;;6.93;62.94;101458.00;4824174;28;122372;-84
2022/04/11 04:42:21;;;;;;;10.40;5.40;;;;;;;6.91;62.74;101445.97;4838136;28;120270;-83
2022/04/11 04:44:47;;;;;;;10.43;6.05;;;;;;;7.08;62.83;101461.34;4838262;28;120102;-82
2022/04/11 04:47:17;;;;;;;11.35;6.05;;;;;;;7.09;62.83;101465.63;4818832;28;122144;-83
2022/04/11 04:49:44;;;;;;;11.35;5.90;;;;;;;7.16;63.35;101460.09;4854076;28;119769;-83
2022/04/11 04:52:13;;;;;;;14.38;6.10;;;;;;;7.18;63.57;101465.91;4809374;28;121411;-84
2022/04/11 04:54:58;;;;;;;12.82;6.15;;;;;;;7.25;64.11;101459.59;4824556;28;121753;-82
2022/04/11 04:57:25;;;;;;;8.35;5.85;;;;;;;7.34;63.80;101471.59;4840672;28;120247;-83
2022/04/11 04:59:50;;;;;;;11.38;5.82;;;;;;;7.45;63.68;101470.66;4817222;28;122069;-82
2022/04/11 05:02:22;;;;;;;12.30;6.00;;;;;;;7.55;64.16;101475.22;4821229;28;122928;-82
2022/04/11 05:04:48;;;;;;;11.50;5.78;;;;;;;7.64;64.72;101480.97;4805932;28;120262;-84
2022/04/11 05:07:14;;;;;;;10.07;5.60;;;;;;;7.66;63.74;101467.66;4830253;28;119542;-83
2022/04/11 05:09:41;;;;;;;13.13;5.35;;;;;;;7.82;63.56;101472.53;4815076;28;123310;-82
2022/04/11 05:12:08;;;;;;;13.30;6.00;;;;;;;7.84;63.50;101470.16;4832994;28;119608;-83
2022/04/11 05:14:37;;;;;;;11.20;5.43;;;;;;;7.89;63.46;101467.72;4820669;28;120144;-82
2022/04/11 05:17:09;;;;;;;13.23;5.28;;;;;;;7.96;63.12;101484.00;4806240;28;122832;-82
2022/04/11 05:19:35;;;;;;;10.77;4.32;;;;;;;7.95;63.31;101479.72;4841968;28;119602;-83
2022/04/11 05:22:00;;;;;;;13.05;4.72;;;;;;;8.07;63.05;101480.38;4804768;28;122668;-83
2022/04/11 05:24:27;;;;;;;14.77;5.00;;;;;;;8.18;63.35;101484.47;4811043;28;119752;-82
2022/04/11 05:26:53;;;;;;;10.43;4.47;;;;;;;8.22;63.09;101479.72;4821890;28;119662;-82
2022/04/11 05:29:18;;;;;;;11.73;5.00;;;;;;;8.26;63.26;101477.69;4803180;28;122705;-82
2022/04/11 05:31:45;;;;;;;8.50;4.47;;;;;;;8.31;63.40;101476.47;4803114;28;120184;-83
2022/04/11 05:34:10;;;;;;;13.73;4.35;;;;;;;8.41;63.02;101491.94;4813430;28;120455;-82
2022/04/11 05:36:36;;;;;;;12.68;4.20;;;;;;;8.33;62.33;101471.38;4809406;28;122441;-83
2022/04/11 05:39:02;;;;;;;10.65;4.30;;;;;;;8.43;62.51;101481.38;4837505;28;119967;-83
2022/04/11 05:41:29;;;;;;;9.82;4.57;;;;;;;8.41;62.58;101480.25;4835660;28;119344;-82
2022/04/11 05:43:55;;;;;;;12.52;4.45;;;;;;;8.48;62.65;101491.06;4821731;28;120262;-83
2022/04/11 05:46:26;;;;;;;9.60;4.60;;;;;;;8.45;62.83;101480.94;4806072;28;122064;-82
2022/04/11 05:49:14;;;;;;;12.90;4.68;;;;;;;8.49;62.56;101487.91;4823250;28;122932;-82
2022/04/11 05:51:40;;;;;;;11.55;4.50;;;;;;;8.58;62.62;101485.41;4804869;28;119915;-82
2022/04/11 05:54:06;;;;;;;10.63;4.18;;;;;;;8.63;62.67;101495.09;4803868;28;122884;-83
2022/04/11 05:56:33;;;;;;;9.50;4.20;;;;;;;8.69;62.97;101501.63;4804591;28;122803;-82
2022/04/11 05:59:03;;;;;;;10.60;4.55;;;;;;;8.79;62.60;101499.91;4804521;28;119537;-82
2022/04/11 06:01:31;;;;;;;10.85;4.40;;;;;;;8.80;62.79;101504.19;4823493;28;121787;-81
2022/04/11 06:03:57;;;;;;;7.43;3.88;;;;;;;8.90;62.38;101516.91;4806418;28;120187;-82
2022/04/11 06:06:22;;;;;;;11.95;4.22;;;;;;;8.96;62.92;101519.94;4803673;28;120175;-81
2022/04/11 06:08:48;;;;;;;10.43;4.03;;;;;;;8.97;62.46;101510.53;4820951;28;122830;-82
2022/04/11 06:11:14;;;;;;;10.73;4.35;;;;;;;9.05;62.72;101518.22;4836822;28;120098;-82
2022/04/11 06:13:47;;;;;;;6.90;4.00;;;;;;;9.12;62.67;101522.75;4832893;28;119949;-82
2022/04/11 06:16:13;;;;;;;12.25;4.35;;;;;;;9.15;62.80;101528.16;4818515;28;119758;-82
2022/04/11 06:18:39;;;;;;;10.10;3.75;;;;;;;9.16;62.90;101526.97;4820027;28;121222;-82
2022/04/11 06:21:05;;;;;;;10.00;3.60;;;;;;;9.19;62.94;101523.41;4835464;28;119900;-81
2022/04/11 06:23:30;;;;;;;11.05;4.00;;;;;;;9.21;62.39;101521.00;4808466;28;123105;-82
2022/04/11 06:25:57;;;;;;;9.40;3.75;;;;;;;9.29;62.57;101520.91;4821891;28;119669;-82
2022/04/11 06:28:23;;;;;;;11.10;3.20;;;;;;;9.34;62.29;101528.63;4822679;28;122376;-82
2022/04/11 06:30:49;;;;;;;10.05;3.00;;;;;;;9.38;62.94;101534.78;4835901;28;120345;-81
2022/04/11 06:33:18;;;;;;;11.07;2.95;;;;;;;9.46;62.48;101531.50;4805001;28;121835;-82
2022/04/11 06:35:44;;;;;;;9.57;2.88;;;;;;;9.52;62.78;101535.28;4820128;28;123493;-81
2022/04/11 06:38:13;;;;;;;7.10;2.38;;;;;;;9.58;62.05;101537.53;4821078;28;119778;-81
2022/04/11 06:40:40;;;;;;;8.05;2.33;;;;;;;9.61;61.43;101542.16;4838568;28;119628;-81
2022/04/11 06:43:10;;;;;;;7.57;2.50;;;;;;;9.65;61.60;101538.16;4804331;28;122617;-81
2022/04/11 06:45:43;;;;;;;8.07;2.35;;;;;;;9.71;61.00;101536.47;4829184;28;120111;-81
2022/04/11 06:48:10;;;;;;;7.28;2.25;;;;;;;9.84;63.01;101545.56;4842261;28;119912;-81
2022/04/11 06:50:36;;;;;;;10.70;2.58;;;;;;;9.95;61.66;101547.34;4824042;28;120047;-80
2022/04/11 06:53:02;;;;;;;9.38;2.17;;;;;;;9.98;60.38;101539.03;4837291;28;121450;-81
2022/04/11 06:55:28;;;;;;;8.80;2.10;;;;;;;10.05;60.05;101543.56;4803848;28;123606;-81
2022/04/11 06:57:54;;;;;;;9.13;2.58;;;;;;;10.04;59.91;101540.06;4843096;28;120741;-81
2022/04/11 07:00:19;;;;;;;7.60;2.45;;;;;;;10.15;59.87;101550.78;4823561;28;122698;-81
2022/04/11 07:02:45;;;;;;;8.55;2.45;;;;;;;10.15;59.75;101539.81;4833882;28;123224;-81
2022/04/11 07:05:11;;;;;;;11.98;2.55;;;;;;;10.25;58.69;101552.56;4823918;28;119413;-81
2022/04/11 07:07:39;;;;;;;7.47;2.40;;;;;;;10.24;59.30;101545.53;4834420;28;121694;-81
2022/04/11 07:10:06;;;;;;;8.65;2.30;;;;;;;10.31;59.22;101544.59;4835318;28;119976;-80
2022/04/11 07:12:31;;;;;;;9.13;2.58;;;;;;;10.30;58.55;101538.31;4810780;29;122420;-81
2022/04/11 07:15:02;;;;;;;9.57;2.67;;;;;;;10.35;59.20;101545.25;4839061;28;119900;-81
2022/04/11 07:17:30;;;;;;;6.63;2.13;;;;;;;10.47;59.13;101558.31;4856815;28;120200;-81
2022/04/11 07:19:55;;;;;;;11.38;2.35;;;;;;;10.50;57.59;101554.72;4830682;28;119663;-82
2022/04/11 07:22:21;;;;;;;8.63;2.10;;;;;;;10.44;56.41;101548.97;4822192;28;120395;-81
2022/04/11 07:24:47;;;;;;;10.02;2.17;;;;;;;10.48;56.78;101550.88;4840644;28;120528;-81
2022/04/11 07:27:13;;;;;;;9.50;2.00;;;;;;;10.51;57.55;101542.53;4819297;28;121601;-82
2022/04/11 07:29:41;;;;;;;8.82;1.95;;;;;;;10.61;56.40;101548.97;4841558;28;122263;-81
2022/04/11 07:32:07;;;;;;;9.13;1.88;;;;;;;10.72;56.48;101554.97;4806754;28;122239;-82
2022/04/11 07:34:33;;;;;;;10.35;2.13;;;;;;;10.74;55.48;101549.81;4819694;28;123727;-80
2022/04/11 07:36:58;;;;;;;7.97;2.00;;;;;;;10.80;55.77;101547.31;4837641;28;119981;-81
2022/04/11 07:39:24;;;;;;;7.10;2.03;;;;;;;10.81;56.04;101549.63;4820376;28;121574;-80
2022/04/11 07:41:52;;;;;;;8.80;2.17;;;;;;;10.92;55.28;101549.38;4854385;28;119857;-81
2022/04/11 07:44:19;;;;;;;10.25;2.08;;;;;;;10.87;55.25;101547.91;4831675;28;119972;-80
2022/04/11 07:46:44;;;;;;;11.55;2.70;;;;;;;10.89;55.42;101531.81;4823027;28;120868;-80
2022/04/11 07:49:10;;;;;;;10.23;2.10;;;;;;;11.10;55.90;101544.19;4815183;28;122728;-81
2022/04/11 07:51:36;;;;;;;8.73;2.58;;;;;;;11.30;55.79;101544.81;4811219;28;119867;-81
2022/04/11 07:54:01;;;;;;;7.78;2.40;;;;;;;11.47;55.11;101545.53;4850462;28;120184;-81
2022/04/11 07:56:29;;;;;;;9.80;2.22;;;;;;;11.62;54.23;101535.69;4837385;28;119888;-80
2022/04/11 07:58:58;;;;;;;7.57;2.05;;;;;;;11.70;53.85;101541.75;4835974;28;122563;-81
2022/04/11 08:01:24;;;;;;;6.03;2.30;;;;;;;11.67;53.43;101537.91;4818663;28;121726;-81
2022/04/11 08:03:49;;;;;;;6.80;1.80;;;;;;;11.65;53.53;101547.78;4830504;28;119758;-81
2022/04/11 08:06:15;;;;;;;6.53;1.80;;;;;;;11.60;52.26;101548.34;4805483;28;122278;-80
2022/04/11 08:08:47;;;;;;;9.00;1.85;;;;;;;11.75;52.49;101548.66;4818189;28;123162;-80
2022/04/11 08:11:19;;;;;;;8.98;1.70;;;;;;;11.86;51.79;101541.69;4841853;28;119457;-81
2022/04/11 08:13:45;;;;;;;7.28;1.80;;;;;;;11.96;51.78;101546.09;4828974;28;120126;-80
2022/04/11 08:16:12;;;;;;;8.35;1.75;;;;;;;12.03;51.50;101549.84;4852330;28;119576;-81
2022/04/11 08:18:38;;;;;;;5.78;1.83;;;;;;;11.96;51.60;101548.06;4804250;28;119793;-80
2022/04/11 08:21:04;;;;;;;4.78;1.73;;;;;;;11.96;51.09;101564.56;4837466;28;122719;-81
2022/04/11 08:23:30;;;;;;;4.60;1.38;;;;;;;11.96;50.87;101564.56;4831602;28;119924;-80
2022/04/11 08:25:56;;;;;;;6.60;1.67;;;;;;;11.83;50.26;101534.34;4842482;28;120489;-80
2022/04/11 08:28:22;;;;;;;4.88;1.20;;;;;;;11.96;49.78;101542.56;4839556;28;120203;-80
2022/04/11 08:30:49;;;;;;;5.05;1.20;;;;;;;11.93;48.84;101530.47;4848304;28;120834;-80
2022/04/11 08:33:15;;;;;;;9.18;1.50;;;;;;;12.01;49.21;101535.75;4836396;28;121909;-79
2022/04/11 08:35:41;;;;;;;10.63;1.88;;;;;;;12.08;49.28;101549.31;4846823;28;119674;-80
2022/04/11 08:38:06;;;;;;;10.95;1.70;;;;;;;12.05;48.41;101556.44;4843565;28;119718;-80
2022/04/11 08:40:32;;;;;;;4.75;1.40;;;;;;;11.84;48.59;101527.63;4823467;28;121987;-81
2022/04/11 08:43:02;;;;;;;7.97;1.60;;;;;;;11.80;49.00;101539.91;4822094;28;120000;-80
2022/04/11 08:45:29;;;;;;;11.93;1.85;;;;;;;11.91;49.49;101554.91;4818645;28;120960;-80
2022/04/11 08:47:56;;;;;;;4.55;1.55;;;;;;;11.95;49.77;101560.28;4818190;29;122270;-81
2022/04/11 08:50:24;;;;;;;5.63;1.70;;;;;;;11.95;49.96;101557.53;4831997;28;121441;-80
2022/04/11 08:52:51;;;;;;;7.28;1.70;;;;;;;11.94;49.04;101558.75;4805324;28;119989;-81
2022/04/11 08:55:17;;;;;;;4.85;1.65;;;;;;;11.99;49.88;101563.69;4855368;28;120330;-81
2022/04/11 08:57:43;;;;;;;7.72;1.80;;;;;;;12.06;48.78;101549.72;4841841;28;122046;-80
2022/04/11 09:00:17;;;;;;;4.32;1.15;;;;;;;12.19;49.11;101555.25;4856829;28;119783;-80
2022/04/11 09:02:43;;;;;;;;;;;;;;;12.31;49.20;101553.72;4837562;28;119929;-81
2022/04/11 09:05:10;;;;;;;5.88;1.80;;;;;;;12.29;49.22;101527.38;4806819;28;122833;-81
2022/04/11 09:07:52;;;;;;;4.65;1.30;;;;;;;12.56;49.24;101548.97;4819832;28;122707;-80
2022/04/11 09:10:29;;;;;;;8.10;2.05;;;;;;;12.66;48.34;101566.31;4837660;28;120296;-81
2022/04/11 09:12:57;;;;;;;10.40;2.13;;;;;;;12.70;48.54;101558.72;4832515;28;121745;-80
2022/04/11 09:15:23;;;;;;;6.63;2.00;;;;;;;12.78;48.01;101565.53;4836144;28;124094;-81
2022/04/11 09:17:50;;;;;;;6.55;1.75;;;;;;;12.84;45.98;101571.25;4841920;28;119755;-81
2022/04/11 09:20:18;;;;;;;7.95;1.70;;;;;;;12.83;46.24;101564.97;4836739;28;121428;-81
2022/04/11 09:22:44;;;;;;;10.20;2.10;;;;;;;12.83;46.61;101570.47;4829713;28;119906;-81
2022/04/11 09:25:16;;;;;;;12.38;1.88;;;;;;;12.84;46.14;101565.75;4834514;28;120851;-80
2022/04/11 09:27:42;;;;;;;8.18;1.80;;;;;;;12.84;45.73;101572.03;4806305;28;123617;-81
2022/04/11 09:30:25;;;;;;;5.78;1.63;;;;;;;12.89;46.48;101567.94;4839141;28;120174;-81
2022/04/11 09:33:01;;;;;;;9.68;1.98;;;;;;;12.88;45.40;101571.91;4836016;28;119850;-81
2022/04/11 09:35:29;;;;;;;7.43;1.90;;;;;;;12.87;46.35;101564.84;4838993;28;120227;-81
2022/04/11 09:38:12;;;;;;;6.28;1.88;;;;;;;12.86;45.85;101569.59;4841359;28;119947;-81
2022/04/11 09:40:55;;;;;;;7.35;1.90;;;;;;;12.91;46.14;101565.50;4827959;28;120142;-81
2022/04/11 09:43:26;;;;;;;6.35;1.40;;;;;;;12.98;46.03;101572.75;4822084;28;120006;-81
2022/04/11 09:45:52;;;;;;;7.53;1.30;;;;;;;13.08;45.32;101563.38;4856672;28;119772;-81
2022/04/11 09:48:24;;;;;;;8.10;1.45;;;;;;;13.31;46.64;101581.50;4841154;28;123080;-81
2022/04/11 09:50:51;;;;;;;5.50;1.50;;;;;;;13.39;48.16;101555.22;4841249;28;120255;-81
2022/04/11 09:53:18;;;;;;;6.22;1.48;;;;;;;13.63;45.09;101574.81;4826430;28;120275;-81
2022/04/11 09:55:46;;;;;;;8.18;1.90;;;;;;;13.68;45.64;101572.25;4849220;28;119805;-81
2022/04/11 09:58:13;;;;;;;8.05;1.48;;;;;;;13.73;47.40;101568.94;4821657;28;120139;-81
2022/04/11 10:00:40;;;;;;;6.65;1.40;;;;;;;13.78;45.50;101576.63;4843885;28;119647;-80
2022/04/11 10:03:07;;;;;;;6.30;1.50;;;;;;;13.81;45.38;101567.44;4824694;28;119848;-81
2022/04/11 10:05:37;;;;;;;7.97;1.70;;;;;;;13.88;45.41;101574.66;4835310;28;121358;-81
2022/04/11 10:08:08;;;;;;;6.28;1.45;;;;;;;13.89;43.91;101567.94;4822347;28;123120;-81
2022/04/11 10:10:35;;;;;;;5.30;1.42;;;;;;;13.82;43.72;101576.47;4824632;28;119679;-81
2022/04/11 10:13:02;;;;;;;9.52;1.50;;;;;;;13.69;43.53;101573.00;4811325;28;119496;-81
2022/04/11 10:15:28;;;;;;;6.47;1.38;;;;;;;13.69;43.53;101573.78;4842615;28;120389;-81
2022/04/11 10:17:56;;;;;;;8.57;1.75;;;;;;;13.67;44.09;101564.44;4853104;28;119912;-81
2022/04/11 10:20:30;;;;;;;7.82;1.40;;;;;;;13.65;44.22;101566.88;4810538;28;122598;-81
2022/04/11 10:23:17;;;;;;;8.80;1.50;;;;;;;13.65;43.90;101566.88;4844510;28;119787;-81
2022/04/11 10:25:48;;;;;;;5.50;1.70;;;;;;;13.66;43.38;101560.13;4840216;28;119493;-81
2022/04/11 10:28:18;;;;;;;6.03;1.60;;;;;;;13.67;43.85;101567.97;4833990;28;122580;-80
2022/04/11 10:30:46;;;;;;;4.60;1.30;;;;;;;13.69;43.48;101571.03;4832680;28;119630;-80
2022/04/11 10:33:12;;;;;;;7.20;1.90;;;;;;;13.71;41.41;101563.06;4802153;28;120994;-82
2022/04/11 10:35:43;;;;;;;4.35;1.40;;;;;;;13.72;43.08;101566.59;4816249;28;122873;-81
2022/04/11 10:38:10;;;;;;;7.68;1.50;;;;;;;13.69;43.42;101570.25;4800011;28;119521;-81
2022/04/11 10:40:38;;;;;;;8.38;1.80;;;;;;;13.65;41.85;101573.16;4817413;28;123077;-81
2022/04/11 10:43:05;;;;;;;5.68;1.75;;;;;;;13.57;42.28;101576.63;4832318;28;119921;-80
2022/04/11 10:45:35;;;;;;;7.47;1.90;;;;;;;13.47;42.05;101578.53;4854756;28;121395;-81
2022/04/11 10:48:05;;;;;;;5.45;2.00;;;;;;;13.41;41.18;101566.56;4849008;28;121556;-81
2022/04/11 10:50:42;;;;;;;3.78;1.40;;;;;;;13.41;42.39;101569.31;4833735;28;119587;-81
2022/04/11 10:53:27;;;;;;;5.57;1.60;;;;;;;13.49;42.98;101570.63;4801284;28;122475;-81
2022/04/11 10:56:20;;;;;;;8.27;1.70;;;;;;;13.44;42.77;101549.88;4847087;28;120893;-81
2022/04/11 10:58:50;;;;;;;6.97;1.40;;;;;;;13.57;41.53;101573.88;4813847;28;121273;-80
2022/04/11 11:01:46;;;;;;;6.40;1.50;;;;;;;13.45;40.56;101572.69;4849949;28;119682;-81
2022/04/11 11:04:19;;;;;;;8.07;2.75;;;;;;;13.29;42.38;101573.66;4816803;28;123073;-81
2022/04/11 11:06:46;;;;;;;9.60;2.63;;;;;;;13.24;42.32;101568.72;4832502;28;119896;-81
2022/04/11 11:09:19;;;;;;;8.45;1.50;;;;;;;13.30;41.83;101564.19;4819885;28;120934;-80
2022/04/11 11:11:46;;;;;;;7.33;1.47;;;;;;;13.41;42.03;101553.53;4833720;28;119808;-80
2022/04/11 11:14:41;;;;;;;5.63;1.27;;;;;;;13.69;45.52;101562.00;4833538;28;119950;-81
2022/04/11 11:17:07;;;;;;;6.85;1.30;;;;;;;13.90;43.90;101549.41;4849389;28;120361;-81
2022/04/11 11:20:01;;;;;;;5.22;1.23;;;;;;;14.11;43.05;101554.84;4833864;28;119885;-81
2022/04/11 11:22:31;;;;;;;4.50;1.27;;;;;;;14.20;41.18;101534.06;4817999;28;120600;-81
2022/04/11 11:25:18;;;;;;;8.07;1.70;;;;;;;14.48;42.59;101554.25;4831982;28;121596;-81